Terminal Aerodrome Forecast
Issued by NWS

Home | Current Version | Previous Version | Text Only | Print | Product List | Glossary On
Versions: 1 2 3 4 5 6 7 8 9 10 11 12 13 14 15 16
056
FTUS42 KTBW 231128
TAFRSW
TAF
KRSW 231128Z 2312/2412 16007KT P6SM FEW025 SCT200
     FM231500 19012G18KT P6SM SCT025 SCT050 BKN200
     FM231800 23017G25KT P6SM SCT050 SCT120 BKN200
     FM240100 21008KT P6SM FEW050 SCT120 BKN200
     FM240900 19008KT P6SM VCTS SCT025CB BKN050=

USA.gov is the U.S. government's official web portal to all federal, state and local government web resources and services.